Time;durP1;ratioP1;P1;durP2;ratioP2;P2;SDS_P1;SDS_P2;PMS_P1;PMS_P2;Temp;Humidity;BMP_temperature;BMP_pressure;BME280_temperature;BME280_humidity;BME280_pressure;Samples;Min_cycle;Max_cycle;Signal;HPM_P1;HPM_P2
2022/11/30 00:01:54;;;;;;;18.25;10.52;;;;;;;;;;5072018;28;20033;-67
2022/11/30 00:04:20;;;;;;;16.58;10.38;;;;;;;;;;5071994;28;20033;-67
2022/11/30 00:06:45;;;;;;;16.45;10.18;;;;;;;;;;5072055;28;20376;-67
2022/11/30 00:09:12;;;;;;;15.45;10.15;;;;;;;;;;5072039;28;20033;-68
2022/11/30 00:11:37;;;;;;;17.33;10.18;;;;;;;;;;5071962;28;20025;-68
2022/11/30 00:14:03;;;;;;;15.90;10.13;;;;;;;;;;5071832;28;20495;-67
2022/11/30 00:16:28;;;;;;;13.75;9.45;;;;;;;;;;5071959;28;20024;-67
2022/11/30 00:18:54;;;;;;;14.90;9.30;;;;;;;;;;5071721;28;20144;-67
2022/11/30 00:21:19;;;;;;;15.85;10.05;;;;;;;;;;5071811;28;20025;-68
2022/11/30 00:23:46;;;;;;;16.10;9.63;;;;;;;;;;5072075;28;20028;-68
2022/11/30 00:26:17;;;;;;;14.18;9.25;;;;;;;;;;5071899;28;20392;-68
2022/11/30 00:28:44;;;;;;;15.05;9.95;;;;;;;;;;5072602;28;20021;-68
2022/11/30 00:31:13;;;;;;;14.73;9.95;;;;;;;;;;5075461;28;20033;-68
2022/11/30 00:33:39;;;;;;;14.65;9.95;;;;;;;;;;5075422;28;20103;-68
2022/11/30 00:36:11;;;;;;;13.40;9.13;;;;;;;;;;5075417;28;20382;-68
2022/11/30 00:38:36;;;;;;;15.73;9.27;;;;;;;;;;5075316;28;20035;-68
2022/11/30 00:41:02;;;;;;;14.93;9.63;;;;;;;;;;5075394;28;20099;-67
2022/11/30 00:43:29;;;;;;;14.80;10.25;;;;;;;;;;5075371;28;20059;-67
2022/11/30 00:45:54;;;;;;;16.85;10.50;;;;;;;;;;5075219;28;20032;-68
2022/11/30 00:48:20;;;;;;;15.05;9.30;;;;;;;;;;5075212;28;20029;-67
2022/11/30 00:50:48;;;;;;;15.20;9.32;;;;;;;;;;5075165;28;20024;-67
2022/11/30 00:53:13;;;;;;;15.05;9.93;;;;;;;;;;5074970;28;20024;-67
2022/11/30 00:55:39;;;;;;;15.45;9.70;;;;;;;;;;5075039;28;20069;-67
2022/11/30 00:58:06;;;;;;;14.88;9.40;;;;;;;;;;5075062;28;20024;-67
2022/11/30 01:00:32;;;;;;;13.13;9.00;;;;;;;;;;5074949;28;20031;-67
2022/11/30 01:03:01;;;;;;;14.85;10.07;;;;;;;;;;5074917;28;20112;-67
2022/11/30 01:05:27;;;;;;;15.80;10.05;;;;;;;;;;5074953;28;20025;-67
2022/11/30 01:07:53;;;;;;;14.77;10.30;;;;;;;;;;5074747;28;20036;-67
2022/11/30 01:10:18;;;;;;;13.02;8.90;;;;;;;;;;5074820;28;20031;-67
2022/11/30 01:12:44;;;;;;;14.85;9.70;;;;;;;;;;5074640;28;20028;-67
2022/11/30 01:15:10;;;;;;;15.10;9.63;;;;;;;;;;5074742;28;20052;-68
2022/11/30 01:17:35;;;;;;;12.73;8.68;;;;;;;;;;5074522;28;20060;-67
2022/11/30 01:20:03;;;;;;;14.23;9.70;;;;;;;;;;5074696;28;20086;-67
2022/11/30 01:22:28;;;;;;;12.43;9.13;;;;;;;;;;5074761;28;20025;-67
2022/11/30 01:24:54;;;;;;;14.90;9.50;;;;;;;;;;5074591;28;20423;-67
2022/11/30 01:27:19;;;;;;;13.18;9.15;;;;;;;;;;5074534;28;20017;-67
2022/11/30 01:29:45;;;;;;;15.05;9.05;;;;;;;;;;5074484;28;20468;-67
2022/11/30 01:32:10;;;;;;;14.52;9.30;;;;;;;;;;5074347;28;20031;-67
2022/11/30 01:34:36;;;;;;;15.65;9.68;;;;;;;;;;5074358;28;20063;-68
2022/11/30 01:37:01;;;;;;;14.25;9.23;;;;;;;;;;5074274;28;20024;-67
2022/11/30 01:39:27;;;;;;;13.25;9.57;;;;;;;;;;5074285;28;20063;-67
2022/11/30 01:41:53;;;;;;;16.38;9.75;;;;;;;;;;5073842;28;20465;-67
2022/11/30 01:44:25;;;;;;;14.05;9.90;;;;;;;;;;5074237;28;20033;-67
2022/11/30 01:47:06;;;;;;;14.15;9.52;;;;;;;;;;5074091;28;20024;-68
2022/11/30 01:49:43;;;;;;;12.43;8.50;;;;;;;;;;5074109;28;20077;-67
2022/11/30 01:52:19;;;;;;;13.93;9.43;;;;;;;;;;5074033;28;20119;-67
2022/11/30 01:55:00;;;;;;;14.88;8.55;;;;;;;;;;5073959;28;20048;-67
2022/11/30 01:57:41;;;;;;;12.60;9.02;;;;;;;;;;5055953;28;20021;-68
2022/11/30 02:00:12;;;;;;;13.68;8.95;;;;;;;;;;5073887;28;20024;-67
2022/11/30 02:02:59;;;;;;;11.90;8.90;;;;;;;;;;5055832;28;20380;-67
2022/11/30 02:05:26;;;;;;;12.52;9.05;;;;;;;;;;5074042;28;20103;-67
2022/11/30 02:07:52;;;;;;;14.32;9.18;;;;;;;;;;5073647;28;20048;-67
2022/11/30 02:10:24;;;;;;;12.88;8.70;;;;;;;;;;5073692;28;20472;-67
2022/11/30 02:13:31;;;;;;;13.85;9.13;;;;;;;;;;5073548;28;20487;-67
2022/11/30 02:16:22;;;;;;;12.85;9.02;;;;;;;;;;5073605;28;20036;-67
2022/11/30 02:18:54;;;;;;;15.60;9.13;;;;;;;;;;5073408;28;20098;-67
2022/11/30 02:21:45;;;;;;;14.98;8.82;;;;;;;;;;5073364;28;20080;-67
2022/11/30 02:24:37;;;;;;;12.40;8.80;;;;;;;;;;5073443;28;20032;-67
2022/11/30 02:27:03;;;;;;;13.18;9.23;;;;;;;;;;5073269;28;20314;-67
2022/11/30 02:29:38;;;;;;;13.65;9.27;;;;;;;;;;5073258;28;20099;-67
2022/11/30 02:32:13;;;;;;;12.35;8.80;;;;;;;;;;5073083;28;20032;-67
2022/11/30 02:34:41;;;;;;;13.82;9.07;;;;;;;;;;5073240;28;20025;-67
2022/11/30 02:37:09;;;;;;;13.80;8.95;;;;;;;;;;5055189;28;20387;-67
2022/11/30 02:39:35;;;;;;;12.82;8.88;;;;;;;;;;5073127;28;20028;-67
2022/11/30 02:42:00;;;;;;;11.63;8.80;;;;;;;;;;5073100;28;20036;-67
2022/11/30 02:44:27;;;;;;;12.43;8.35;;;;;;;;;;5055099;28;20025;-67
2022/11/30 02:47:03;;;;;;;14.40;9.63;;;;;;;;;;5073213;28;20031;-67
2022/11/30 02:49:31;;;;;;;13.95;9.15;;;;;;;;;;5055994;28;20078;-67
2022/11/30 02:51:59;;;;;;;12.60;8.55;;;;;;;;;;5072258;28;20033;-69
2022/11/30 02:54:24;;;;;;;13.52;9.10;;;;;;;;;;5072575;28;20040;-70
2022/11/30 02:56:50;;;;;;;11.60;8.65;;;;;;;;;;5073119;28;20383;-68
2022/11/30 02:59:15;;;;;;;13.60;8.73;;;;;;;;;;5072758;28;20029;-67
2022/11/30 03:01:41;;;;;;;12.48;8.98;;;;;;;;;;5072767;28;20017;-67
2022/11/30 03:04:07;;;;;;;14.23;9.07;;;;;;;;;;5072919;28;20032;-67
2022/11/30 03:06:32;;;;;;;13.07;8.57;;;;;;;;;;5072725;28;20398;-68
2022/11/30 03:08:58;;;;;;;12.85;8.68;;;;;;;;;;5072507;28;20028;-67
2022/11/30 03:11:24;;;;;;;13.73;8.52;;;;;;;;;;5072600;28;20021;-68
2022/11/30 03:13:50;;;;;;;13.00;9.30;;;;;;;;;;5072780;28;20444;-67
2022/11/30 03:16:15;;;;;;;12.73;8.57;;;;;;;;;;5072519;28;20112;-67
2022/11/30 03:18:41;;;;;;;12.10;8.38;;;;;;;;;;5072339;28;20048;-67
2022/11/30 03:21:09;;;;;;;11.40;8.23;;;;;;;;;;5054476;28;20028;-67
2022/11/30 03:23:35;;;;;;;12.73;8.15;;;;;;;;;;5072506;28;20052;-67
2022/11/30 03:26:01;;;;;;;15.15;8.90;;;;;;;;;;5072488;28;20032;-67
2022/11/30 03:28:27;;;;;;;11.95;8.52;;;;;;;;;;5072407;28;20036;-67
2022/11/30 03:30:53;;;;;;;12.98;8.43;;;;;;;;;;5072627;28;20025;-67
2022/11/30 03:33:18;;;;;;;12.50;8.30;;;;;;;;;;5072342;28;20039;-67
2022/11/30 03:35:44;;;;;;;12.70;8.40;;;;;;;;;;5072423;28;20105;-67
2022/11/30 03:38:10;;;;;;;13.10;8.45;;;;;;;;;;5072354;28;20032;-67
2022/11/30 03:40:37;;;;;;;13.07;9.13;;;;;;;;;;5072207;28;20024;-67
2022/11/30 03:43:02;;;;;;;12.73;8.80;;;;;;;;;;5072311;28;20476;-67
2022/11/30 03:45:28;;;;;;;13.00;8.48;;;;;;;;;;5072196;28;20031;-67
2022/11/30 03:47:53;;;;;;;11.82;8.50;;;;;;;;;;5072211;28;20078;-67
2022/11/30 03:50:19;;;;;;;12.63;8.60;;;;;;;;;;5072451;28;20032;-67
2022/11/30 03:52:44;;;;;;;10.98;7.80;;;;;;;;;;5072299;28;20490;-67
2022/11/30 03:55:10;;;;;;;13.27;8.05;;;;;;;;;;5072059;28;20097;-68
2022/11/30 03:57:36;;;;;;;14.10;8.60;;;;;;;;;;5072041;28;20047;-67
2022/11/30 04:00:02;;;;;;;11.50;7.97;;;;;;;;;;5054131;28;20036;-67
2022/11/30 04:02:28;;;;;;;10.50;7.68;;;;;;;;;;5072061;28;20368;-67
2022/11/30 04:04:53;;;;;;;13.10;8.13;;;;;;;;;;5074787;28;20465;-68
2022/11/30 04:07:19;;;;;;;11.35;8.45;;;;;;;;;;5058237;28;20017;-67
2022/11/30 04:09:44;;;;;;;13.32;8.82;;;;;;;;;;5073945;28;20016;-68
2022/11/30 04:12:10;;;;;;;10.20;7.70;;;;;;;;;;5072223;28;20024;-67
2022/11/30 04:14:36;;;;;;;10.68;8.02;;;;;;;;;;5075090;28;20421;-67
2022/11/30 04:17:01;;;;;;;12.00;8.50;;;;;;;;;;5075613;28;20020;-67
2022/11/30 04:19:27;;;;;;;10.73;7.68;;;;;;;;;;5075763;28;20028;-68
2022/11/30 04:21:52;;;;;;;13.00;7.88;;;;;;;;;;5074145;28;20024;-66
2022/11/30 04:24:18;;;;;;;12.50;8.32;;;;;;;;;;5075662;28;20107;-68
2022/11/30 04:26:44;;;;;;;11.95;8.43;;;;;;;;;;5075815;28;20421;-68
2022/11/30 04:29:10;;;;;;;11.07;7.65;;;;;;;;;;5075031;28;20553;-68
2022/11/30 04:31:36;;;;;;;11.10;8.20;;;;;;;;;;5075441;28;20070;-67
2022/11/30 04:34:01;;;;;;;11.95;8.07;;;;;;;;;;5075434;28;20110;-67
2022/11/30 04:36:27;;;;;;;12.10;8.48;;;;;;;;;;5074574;28;20020;-68
2022/11/30 04:38:52;;;;;;;12.45;7.97;;;;;;;;;;5074749;28;20037;-68
2022/11/30 04:41:18;;;;;;;11.27;8.13;;;;;;;;;;5073915;28;20730;-68
2022/11/30 04:43:43;;;;;;;10.95;8.10;;;;;;;;;;5073415;28;20048;-68
2022/11/30 04:46:09;;;;;;;12.93;8.13;;;;;;;;;;5074362;28;20430;-67
2022/11/30 04:48:35;;;;;;;12.15;8.07;;;;;;;;;;5073925;28;20494;-68
2022/11/30 04:51:05;;;;;;;10.95;7.95;;;;;;;;;;5073518;28;20035;-67
2022/11/30 04:53:32;;;;;;;10.55;7.75;;;;;;;;;;5073437;28;20025;-67
2022/11/30 04:55:58;;;;;;;11.32;8.02;;;;;;;;;;5072904;28;20025;-68
2022/11/30 04:58:23;;;;;;;11.40;8.15;;;;;;;;;;5073075;28;20031;-68
2022/11/30 05:00:52;;;;;;;11.15;7.55;;;;;;;;;;5073238;28;20487;-68
2022/11/30 05:03:17;;;;;;;11.20;7.80;;;;;;;;;;5074018;28;20024;-68
2022/11/30 05:05:43;;;;;;;11.98;7.97;;;;;;;;;;5074859;28;20379;-68
2022/11/30 05:08:08;;;;;;;10.98;7.78;;;;;;;;;;5074925;28;20027;-68
2022/11/30 05:10:34;;;;;;;13.13;8.48;;;;;;;;;;5075426;28;20037;-67
2022/11/30 05:12:59;;;;;;;9.73;7.68;;;;;;;;;;5074980;28;20380;-68
2022/11/30 05:15:25;;;;;;;11.88;7.75;;;;;;;;;;5073978;28;20024;-68
2022/11/30 05:17:51;;;;;;;10.65;7.28;;;;;;;;;;5073708;28;20538;-67
2022/11/30 05:20:16;;;;;;;12.32;8.10;;;;;;;;;;5074672;28;20033;-68
2022/11/30 05:22:42;;;;;;;11.70;7.75;;;;;;;;;;5074634;28;20028;-68
2022/11/30 05:25:08;;;;;;;10.18;7.60;;;;;;;;;;5074811;28;20103;-68
2022/11/30 05:27:34;;;;;;;12.02;8.02;;;;;;;;;;5074557;28;20039;-68
2022/11/30 05:29:59;;;;;;;10.77;7.65;;;;;;;;;;5056897;28;20032;-68
2022/11/30 05:32:25;;;;;;;11.88;7.88;;;;;;;;;;5074346;28;20028;-68
2022/11/30 05:34:50;;;;;;;11.07;7.93;;;;;;;;;;5074470;28;20021;-68
2022/11/30 05:37:16;;;;;;;13.15;8.70;;;;;;;;;;5056357;28;20388;-68
2022/11/30 05:39:41;;;;;;;12.82;8.18;;;;;;;;;;5074281;28;20024;-69
2022/11/30 05:42:07;;;;;;;12.60;8.20;;;;;;;;;;5056375;28;20403;-68
2022/11/30 05:44:35;;;;;;;10.63;7.85;;;;;;;;;;5074059;28;20028;-68
2022/11/30 05:47:01;;;;;;;10.90;7.93;;;;;;;;;;5074162;28;20422;-68
2022/11/30 05:49:26;;;;;;;11.40;7.82;;;;;;;;;;5074033;28;20040;-68
2022/11/30 05:51:52;;;;;;;11.43;7.97;;;;;;;;;;5073974;28;20021;-68
2022/11/30 05:54:17;;;;;;;12.00;7.30;;;;;;;;;;5073871;28;20024;-69
2022/11/30 05:56:43;;;;;;;11.82;7.75;;;;;;;;;;5073953;28;20090;-68
2022/11/30 05:59:10;;;;;;;11.00;7.93;;;;;;;;;;5074037;28;20020;-67
2022/11/30 06:01:35;;;;;;;10.05;7.63;;;;;;;;;;5073763;28;20081;-67
2022/11/30 06:04:05;;;;;;;11.48;7.75;;;;;;;;;;5056081;28;20028;-67
2022/11/30 06:06:31;;;;;;;10.75;7.60;;;;;;;;;;5073618;28;20491;-68
2022/11/30 06:08:57;;;;;;;11.48;7.97;;;;;;;;;;5073681;28;20033;-68
2022/11/30 06:11:23;;;;;;;10.63;7.78;;;;;;;;;;5056024;28;20035;-69
2022/11/30 06:13:48;;;;;;;11.40;7.53;;;;;;;;;;5073663;28;20028;-69
2022/11/30 06:16:14;;;;;;;11.13;7.75;;;;;;;;;;5073719;28;20024;-68
2022/11/30 06:18:39;;;;;;;11.57;7.93;;;;;;;;;;5073244;28;20045;-68
2022/11/30 06:21:07;;;;;;;11.10;7.63;;;;;;;;;;5073686;28;20028;-67
2022/11/30 06:23:34;;;;;;;11.75;7.57;;;;;;;;;;5073309;28;20096;-67
2022/11/30 06:26:08;;;;;;;10.75;7.68;;;;;;;;;;5073523;28;20071;-68
2022/11/30 06:28:34;;;;;;;10.30;7.03;;;;;;;;;;5073440;28;20059;-68
2022/11/30 06:31:01;;;;;;;10.90;7.68;;;;;;;;;;5072916;28;20052;-67
2022/11/30 06:33:27;;;;;;;11.25;7.50;;;;;;;;;;5073249;28;20104;-67
2022/11/30 06:35:53;;;;;;;9.90;7.38;;;;;;;;;;5072999;28;20541;-67
2022/11/30 06:38:19;;;;;;;9.93;6.97;;;;;;;;;;5073058;28;20032;-67
2022/11/30 06:40:44;;;;;;;10.60;7.70;;;;;;;;;;5073029;28;20013;-68
2022/11/30 06:43:11;;;;;;;9.23;6.90;;;;;;;;;;5072892;28;20483;-67
2022/11/30 06:45:37;;;;;;;9.63;7.35;;;;;;;;;;5072686;28;20031;-68
2022/11/30 06:48:02;;;;;;;9.30;6.97;;;;;;;;;;5072511;28;20028;-68
2022/11/30 06:50:28;;;;;;;11.38;7.65;;;;;;;;;;5073014;28;20468;-68
2022/11/30 06:52:55;;;;;;;9.80;7.10;;;;;;;;;;5072689;28;20038;-68
2022/11/30 06:55:22;;;;;;;10.10;7.20;;;;;;;;;;5073040;28;20024;-68
2022/11/30 06:57:47;;;;;;;10.25;7.25;;;;;;;;;;5072987;28;20043;-68
2022/11/30 07:00:14;;;;;;;9.50;6.93;;;;;;;;;;5072677;28;20426;-69
2022/11/30 07:02:39;;;;;;;11.93;7.60;;;;;;;;;;5072503;28;20036;-69
2022/11/30 07:05:05;;;;;;;10.98;7.03;;;;;;;;;;5072534;28;20103;-68
2022/11/30 07:07:31;;;;;;;11.45;7.57;;;;;;;;;;5072588;28;20128;-68
2022/11/30 07:09:57;;;;;;;10.30;7.03;;;;;;;;;;5054609;28;20017;-68
2022/11/30 07:12:23;;;;;;;10.48;6.97;;;;;;;;;;5072745;28;20111;-68
2022/11/30 07:14:55;;;;;;;10.48;7.35;;;;;;;;;;5054807;28;20055;-68
2022/11/30 07:17:21;;;;;;;9.10;7.15;;;;;;;;;;5072290;28;20115;-68
2022/11/30 07:19:46;;;;;;;9.45;6.70;;;;;;;;;;5072721;28;20020;-68
2022/11/30 07:22:13;;;;;;;11.35;7.75;;;;;;;;;;5072659;28;20538;-67
2022/11/30 07:27:23;;;;;;;10.07;6.95;;;;;;;;;;5072385;28;20036;-68
2022/11/30 07:29:51;;;;;;;9.77;7.22;;;;;;;;;;5072328;28;20468;-68
2022/11/30 07:32:17;;;;;;;8.65;6.38;;;;;;;;;;5072312;28;20115;-68
2022/11/30 07:34:42;;;;;;;9.07;7.03;;;;;;;;;;5072125;28;20179;-68
2022/11/30 07:37:08;;;;;;;10.48;7.38;;;;;;;;;;5072248;28;20032;-68
2022/11/30 07:39:33;;;;;;;8.60;7.03;;;;;;;;;;5071747;28;20028;-68
2022/11/30 07:41:59;;;;;;;10.20;6.93;;;;;;;;;;5054237;28;20055;-68
2022/11/30 07:44:25;;;;;;;9.57;7.13;;;;;;;;;;5072223;28;20024;-68
2022/11/30 07:46:53;;;;;;;11.02;6.90;;;;;;;;;;5072112;28;20028;-68
2022/11/30 07:49:19;;;;;;;10.93;7.10;;;;;;;;;;5072086;28;20024;-67
2022/11/30 07:51:44;;;;;;;10.00;7.03;;;;;;;;;;5072100;28;20028;-68
2022/11/30 07:54:10;;;;;;;10.50;7.25;;;;;;;;;;5071973;28;20438;-67
2022/11/30 07:56:36;;;;;;;8.90;6.95;;;;;;;;;;5072111;28;20029;-68
2022/11/30 07:59:02;;;;;;;8.15;6.90;;;;;;;;;;5054204;28;20028;-67
2022/11/30 08:01:29;;;;;;;9.85;6.55;;;;;;;;;;5072059;28;20025;-67
2022/11/30 08:03:56;;;;;;;10.75;7.07;;;;;;;;;;5072053;28;20536;-67
2022/11/30 08:06:28;;;;;;;9.93;7.07;;;;;;;;;;5072089;28;20472;-67
2022/11/30 08:08:57;;;;;;;10.43;7.03;;;;;;;;;;5071926;28;20017;-67
2022/11/30 08:11:27;;;;;;;8.85;7.25;;;;;;;;;;5072029;28;20024;-67
2022/11/30 08:13:53;;;;;;;8.65;6.72;;;;;;;;;;5071829;28;20537;-67
2022/11/30 08:16:21;;;;;;;10.38;6.90;;;;;;;;;;5071903;28;20037;-67
2022/11/30 08:18:46;;;;;;;8.90;6.63;;;;;;;;;;5071711;28;20044;-67
2022/11/30 08:21:14;;;;;;;11.10;7.50;;;;;;;;;;5071850;28;20031;-67
2022/11/30 08:23:42;;;;;;;9.80;7.10;;;;;;;;;;5071900;28;20074;-67
2022/11/30 08:26:13;;;;;;;8.55;6.32;;;;;;;;;;5071799;28;20024;-67
2022/11/30 08:28:40;;;;;;;9.20;6.57;;;;;;;;;;5071720;28;20055;-67
2022/11/30 08:31:21;;;;;;;8.35;6.20;;;;;;;;;;5071750;28;20078;-68
2022/11/30 08:33:47;;;;;;;9.35;6.65;;;;;;;;;;5071659;28;20088;-67
2022/11/30 08:36:18;;;;;;;9.73;7.07;;;;;;;;;;5071713;28;20143;-67
2022/11/30 08:38:45;;;;;;;10.57;6.47;;;;;;;;;;5071638;28;20029;-67
2022/11/30 08:41:13;;;;;;;9.45;6.65;;;;;;;;;;5071658;28;20048;-67
2022/11/30 08:43:39;;;;;;;8.45;6.35;;;;;;;;;;5071608;28;20029;-67
2022/11/30 08:46:11;;;;;;;10.18;6.68;;;;;;;;;;5071556;28;20024;-67
2022/11/30 08:48:36;;;;;;;8.18;6.15;;;;;;;;;;5053618;28;20096;-67
2022/11/30 08:51:04;;;;;;;10.18;6.90;;;;;;;;;;5073266;28;20047;-67
2022/11/30 08:53:30;;;;;;;9.30;6.15;;;;;;;;;;5074979;28;20032;-67
2022/11/30 08:56:01;;;;;;;8.63;6.57;;;;;;;;;;5075343;28;20063;-67
2022/11/30 08:58:30;;;;;;;9.15;6.78;;;;;;;;;;5075016;28;20020;-67
2022/11/30 09:01:17;;;;;;;8.32;6.40;;;;;;;;;;5075339;28;20024;-67
2022/11/30 09:03:44;;;;;;;8.30;6.28;;;;;;;;;;5075211;28;20426;-67
2022/11/30 09:06:18;;;;;;;9.10;5.97;;;;;;;;;;5056835;28;20060;-66
2022/11/30 09:08:46;;;;;;;10.15;6.65;;;;;;;;;;5074911;28;20472;-67
2022/11/30 09:11:21;;;;;;;8.27;6.55;;;;;;;;;;5074684;28;20518;-68
2022/11/30 09:13:47;;;;;;;9.68;6.40;;;;;;;;;;5074710;28;20480;-67
2022/11/30 09:16:15;;;;;;;8.88;6.57;;;;;;;;;;5074920;28;20114;-67
2022/11/30 09:18:40;;;;;;;9.18;6.43;;;;;;;;;;5074460;28;20037;-67
2022/11/30 09:21:09;;;;;;;9.57;6.50;;;;;;;;;;5074619;28;20029;-67
2022/11/30 09:23:35;;;;;;;8.15;6.43;;;;;;;;;;5056595;28;20037;-67
2022/11/30 09:26:02;;;;;;;9.57;6.40;;;;;;;;;;5074432;28;20586;-66
2022/11/30 09:28:31;;;;;;;7.85;6.15;;;;;;;;;;5074433;28;20078;-67
2022/11/30 09:31:09;;;;;;;9.82;6.30;;;;;;;;;;5074404;28;20055;-67
2022/11/30 09:33:34;;;;;;;8.82;6.47;;;;;;;;;;5074322;28;20123;-67
2022/11/30 09:36:06;;;;;;;9.48;6.43;;;;;;;;;;5074294;28;20056;-67
2022/11/30 09:38:32;;;;;;;9.35;6.40;;;;;;;;;;5074233;28;20392;-67
2022/11/30 09:41:00;;;;;;;8.73;6.38;;;;;;;;;;5056210;28;20358;-67
2022/11/30 09:43:40;;;;;;;9.15;6.97;;;;;;;;;;5074433;28;20033;-66
2022/11/30 09:46:08;;;;;;;9.05;6.40;;;;;;;;;;5074176;28;20082;-67
2022/11/30 09:48:55;;;;;;;9.30;6.38;;;;;;;;;;5074110;28;20126;-67
2022/11/30 09:51:29;;;;;;;9.18;6.82;;;;;;;;;;5074095;28;20056;-67
2022/11/30 09:54:09;;;;;;;9.85;6.93;;;;;;;;;;5073983;28;20209;-67
2022/11/30 09:56:38;;;;;;;9.45;6.72;;;;;;;;;;5073999;28;20076;-67
2022/11/30 09:59:20;;;;;;;8.85;6.50;;;;;;;;;;5073814;28;20078;-67
2022/11/30 10:01:47;;;;;;;9.27;6.53;;;;;;;;;;5073455;28;20063;-66
2022/11/30 10:04:27;;;;;;;6.93;5.40;;;;;;;;;;5074032;28;20036;-67
2022/11/30 10:07:08;;;;;;;9.60;6.53;;;;;;;;;;5073766;28;20024;-66
2022/11/30 10:09:50;;;;;;;9.40;6.60;;;;;;;;;;5073994;28;20036;-66
2022/11/30 10:12:33;;;;;;;9.00;6.88;;;;;;;;;;5073617;28;20024;-66
2022/11/30 10:15:17;;;;;;;8.65;6.55;;;;;;;;;;5055741;28;20104;-66
2022/11/30 10:17:56;;;;;;;8.57;6.40;;;;;;;;;;5073443;28;20056;-67
2022/11/30 10:20:29;;;;;;;8.18;6.38;;;;;;;;;;5073490;28;20020;-67
2022/11/30 10:23:10;;;;;;;8.15;6.18;;;;;;;;;;5073402;28;20074;-67
2022/11/30 10:25:56;;;;;;;10.38;6.63;;;;;;;;;;5073301;28;20098;-67
2022/11/30 10:28:24;;;;;;;8.55;6.53;;;;;;;;;;5073333;28;20094;-67
2022/11/30 10:30:49;;;;;;;8.27;6.10;;;;;;;;;;5073268;28;20021;-67
2022/11/30 10:33:17;;;;;;;9.65;6.97;;;;;;;;;;5073300;28;20507;-66
2022/11/30 10:35:55;;;;;;;8.65;6.25;;;;;;;;;;5073244;28;20085;-66
2022/11/30 10:38:20;;;;;;;7.35;6.20;;;;;;;;;;5073047;28;20516;-67
2022/11/30 10:40:52;;;;;;;7.97;6.28;;;;;;;;;;5073645;28;20063;-67
2022/11/30 10:43:28;;;;;;;8.75;6.53;;;;;;;;;;5072967;28;20380;-67
2022/11/30 10:45:54;;;;;;;10.60;6.70;;;;;;;;;;5073051;28;20031;-66
2022/11/30 10:48:58;;;;;;;10.13;6.72;;;;;;;;;;5072875;28;20020;-66
2022/11/30 10:51:25;;;;;;;8.65;5.93;;;;;;;;;;5072944;28;20025;-67
2022/11/30 10:53:51;;;;;;;7.10;5.80;;;;;;;;;;5072793;28;20116;-67
2022/11/30 10:56:17;;;;;;;8.93;6.72;;;;;;;;;;5072842;28;20104;-67
2022/11/30 10:58:54;;;;;;;8.43;6.22;;;;;;;;;;5054775;28;20032;-67
2022/11/30 11:01:35;;;;;;;7.88;6.25;;;;;;;;;;5054834;28;20029;-67
2022/11/30 11:04:12;;;;;;;8.45;6.03;;;;;;;;;;5054717;28;20033;-68
2022/11/30 11:06:55;;;;;;;7.88;6.10;;;;;;;;;;5072947;28;20493;-67
2022/11/30 11:09:42;;;;;;;8.65;6.32;;;;;;;;;;5072694;28;20618;-68
2022/11/30 11:12:16;;;;;;;8.50;6.13;;;;;;;;;;5072446;28;20047;-66
2022/11/30 11:14:42;;;;;;;8.27;5.95;;;;;;;;;;5071713;28;20036;-68
2022/11/30 11:17:24;;;;;;;9.05;5.90;;;;;;;;;;5072533;28;20025;-68
2022/11/30 11:19:51;;;;;;;7.97;6.07;;;;;;;;;;5072570;28;20052;-69
2022/11/30 11:22:18;;;;;;;7.50;6.15;;;;;;;;;;5072486;28;20028;-66
2022/11/30 11:24:44;;;;;;;7.75;6.22;;;;;;;;;;5072503;28;20035;-68
2022/11/30 11:27:30;;;;;;;7.72;5.80;;;;;;;;;;5072643;28;20103;-68
2022/11/30 11:30:26;;;;;;;9.38;6.18;;;;;;;;;;5072684;28;20380;-68
2022/11/30 11:33:01;;;;;;;8.48;6.13;;;;;;;;;;5072365;28;20059;-68
2022/11/30 11:35:37;;;;;;;7.88;6.38;;;;;;;;;;5054349;28;20502;-68
2022/11/30 11:38:16;;;;;;;9.65;6.45;;;;;;;;;;5072388;28;20033;-67
2022/11/30 11:40:53;;;;;;;8.27;6.30;;;;;;;;;;5072339;28;20119;-67
2022/11/30 11:43:21;;;;;;;7.63;6.13;;;;;;;;;;5072521;28;20108;-65
2022/11/30 11:45:52;;;;;;;8.00;5.40;;;;;;;;;;5054329;28;20021;-68
2022/11/30 11:48:37;;;;;;;8.68;6.28;;;;;;;;;;5072210;28;20115;-68
2022/11/30 11:51:08;;;;;;;7.60;5.95;;;;;;;;;;5072251;28;20020;-68
2022/11/30 11:53:53;;;;;;;7.18;5.82;;;;;;;;;;5072218;28;20468;-66
2022/11/30 11:56:27;;;;;;;8.25;6.22;;;;;;;;;;5072234;28;20024;-66
2022/11/30 11:59:14;;;;;;;10.05;6.20;;;;;;;;;;5072142;28;20543;-65
2022/11/30 12:02:04;;;;;;;8.25;6.25;;;;;;;;;;5072096;28;20032;-66
2022/11/30 12:04:42;;;;;;;8.27;6.22;;;;;;;;;;5072208;28;20025;-66
2022/11/30 12:07:29;;;;;;;7.63;5.57;;;;;;;;;;5072011;28;20025;-67
2022/11/30 12:10:30;;;;;;;6.90;5.68;;;;;;;;;;5072015;28;20123;-66
2022/11/30 12:12:58;;;;;;;7.72;6.05;;;;;;;;;;5053919;28;20029;-66
2022/11/30 12:15:49;;;;;;;9.15;6.55;;;;;;;;;;5071978;28;20110;-66
2022/11/30 12:18:22;;;;;;;8.85;6.30;;;;;;;;;;5071780;28;20079;-65
2022/11/30 12:21:02;;;;;;;7.72;5.72;;;;;;;;;;5053994;28;20028;-66
2022/11/30 12:23:42;;;;;;;7.70;5.90;;;;;;;;;;5054144;28;20361;-66
2022/11/30 12:26:26;;;;;;;8.93;6.30;;;;;;;;;;5074906;28;20028;-66
2022/11/30 12:29:18;;;;;;;8.30;6.22;;;;;;;;;;5057603;28;20508;-66
2022/11/30 12:31:49;;;;;;;7.85;5.90;;;;;;;;;;5075617;28;20119;-66
2022/11/30 12:34:39;;;;;;;8.65;6.07;;;;;;;;;;5075430;28;20029;-66
2022/11/30 12:37:26;;;;;;;7.22;6.03;;;;;;;;;;5075514;28;20035;-66
2022/11/30 12:40:22;;;;;;;7.63;6.20;;;;;;;;;;5075458;28;20032;-66
2022/11/30 12:43:11;;;;;;;8.15;5.90;;;;;;;;;;5075392;28;20024;-66
2022/11/30 12:45:43;;;;;;;8.25;6.07;;;;;;;;;;5075433;28;20028;-66
2022/11/30 12:48:39;;;;;;;8.68;6.00;;;;;;;;;;5075217;28;20091;-66
2022/11/30 12:51:35;;;;;;;9.15;6.50;;;;;;;;;;5075242;28;20069;-66
2022/11/30 12:54:31;;;;;;;8.32;6.45;;;;;;;;;;5075110;28;20094;-66
2022/11/30 12:57:13;;;;;;;8.10;6.10;;;;;;;;;;5064272;28;20094;-66
2022/11/30 12:59:42;;;;;;;7.57;6.10;;;;;;;;;;5057084;28;20534;-65
2022/11/30 13:02:55;;;;;;;8.18;5.90;;;;;;;;;;5057093;28;20039;-66
2022/11/30 13:05:31;;;;;;;8.50;6.05;;;;;;;;;;5074969;28;20099;-66
2022/11/30 13:08:04;;;;;;;7.10;5.90;;;;;;;;;;5074911;28;20028;-66
2022/11/30 13:10:38;;;;;;;7.53;6.25;;;;;;;;;;5074894;28;20023;-66
2022/11/30 13:13:08;;;;;;;8.75;6.28;;;;;;;;;;5074782;28;20029;-65
2022/11/30 13:15:34;;;;;;;8.65;5.93;;;;;;;;;;5056942;28;20029;-66
2022/11/30 13:18:01;;;;;;;8.05;5.97;;;;;;;;;;5074430;28;20036;-66
2022/11/30 13:20:26;;;;;;;10.60;5.95;;;;;;;;;;5074693;28;20024;-66
2022/11/30 13:23:13;;;;;;;7.60;5.95;;;;;;;;;;5056579;28;20074;-66
2022/11/30 13:26:01;;;;;;;7.93;6.05;;;;;;;;;;5074624;28;20052;-67
2022/11/30 13:28:41;;;;;;;8.45;6.38;;;;;;;;;;5074782;28;20029;-66
2022/11/30 13:31:22;;;;;;;8.85;6.13;;;;;;;;;;5074377;28;20039;-66
2022/11/30 13:33:53;;;;;;;7.30;5.97;;;;;;;;;;5074182;28;20119;-66
2022/11/30 13:36:34;;;;;;;8.18;5.70;;;;;;;;;;5073381;28;20025;-66
2022/11/30 13:39:18;;;;;;;7.75;5.70;;;;;;;;;;5074185;28;20473;-66
2022/11/30 13:41:46;;;;;;;7.45;5.72;;;;;;;;;;5074272;28;20021;-66
2022/11/30 13:44:28;;;;;;;6.88;5.80;;;;;;;;;;5074322;28;20028;-65
2022/11/30 13:46:54;;;;;;;7.95;5.93;;;;;;;;;;5074259;28;20387;-66
2022/11/30 13:49:26;;;;;;;7.65;5.80;;;;;;;;;;5074126;28;20025;-66
2022/11/30 13:51:52;;;;;;;8.32;5.88;;;;;;;;;;5074163;28;20128;-66
2022/11/30 13:54:45;;;;;;;7.65;6.15;;;;;;;;;;5074032;28;20158;-66
2022/11/30 13:57:28;;;;;;;8.40;6.57;;;;;;;;;;5074024;28;20024;-66
2022/11/30 13:59:59;;;;;;;7.90;5.47;;;;;;;;;;5073911;28;20031;-66
2022/11/30 14:02:35;;;;;;;;;;;;;;;;;;5056403;28;20052;-66
2022/11/30 14:05:37;;;;;;;7.13;5.72;;;;;;;;;;5073915;28;19915;-66
2022/11/30 14:08:03;;;;;;;7.88;6.20;;;;;;;;;;5073740;28;20025;-66
2022/11/30 14:10:35;;;;;;;6.88;5.40;;;;;;;;;;5073737;28;20042;-66
2022/11/30 14:13:10;;;;;;;7.65;5.55;;;;;;;;;;5073570;28;20021;-66
2022/11/30 14:15:39;;;;;;;8.27;6.15;;;;;;;;;;5073592;28;20361;-65
2022/11/30 14:18:08;;;;;;;7.40;5.83;;;;;;;;;;5073474;28;20083;-66
2022/11/30 14:20:43;;;;;;;9.45;5.97;;;;;;;;;;5073483;28;20039;-66
2022/11/30 14:23:33;;;;;;;6.80;5.63;;;;;;;;;;5073508;28;20031;-66
2022/11/30 14:26:04;;;;;;;7.72;6.10;;;;;;;;;;5073526;28;20032;-66
2022/11/30 14:28:57;;;;;;;8.57;6.57;;;;;;;;;;5073411;28;20079;-66
2022/11/30 14:31:30;;;;;;;7.47;5.70;;;;;;;;;;5073357;28;20354;-66
2022/11/30 14:34:13;;;;;;;7.10;5.38;;;;;;;;;;5073425;28;20054;-66
2022/11/30 14:36:47;;;;;;;8.18;5.70;;;;;;;;;;5073290;28;20464;-66
2022/11/30 14:39:41;;;;;;;6.75;5.60;;;;;;;;;;5073005;28;20032;-67
2022/11/30 14:42:25;;;;;;;7.97;5.53;;;;;;;;;;5055135;28;20024;-66
2022/11/30 14:44:52;;;;;;;8.10;5.85;;;;;;;;;;5073122;28;20028;-66
2022/11/30 14:47:34;;;;;;;6.68;5.43;;;;;;;;;;5072922;28;20036;-66
2022/11/30 14:50:04;;;;;;;7.68;5.40;;;;;;;;;;5072988;28;20031;-67
2022/11/30 14:52:49;;;;;;;;;;;;;;;;;;5073385;28;20029;-67
2022/11/30 14:55:46;;;;;;;7.65;5.55;;;;;;;;;;5072807;28;20418;-66
2022/11/30 14:58:17;;;;;;;7.53;5.55;;;;;;;;;;5072860;28;20047;-66
2022/11/30 15:00:44;;;;;;;6.78;5.32;;;;;;;;;;5072782;28;20037;-66
2022/11/30 15:03:30;;;;;;;6.85;5.57;;;;;;;;;;5055043;28;20392;-66